sensor_id;sensor_type;location;lat;lon;timestamp;pressure;altitude;pressure_sealevel;temperature;humidity
77517;BME280;68414;53.946;27.634;2023-04-25T00:00:49;98205.437500;;;11.240000;46.721680
77517;BME280;68414;53.946;27.634;2023-04-25T00:01:49;98204.664062;;;11.270000;47.271484
77517;BME280;68414;53.946;27.634;2023-04-25T00:02:49;98205.078125;;;11.290000;47.022461
77517;BME280;68414;53.946;27.634;2023-04-25T00:03:49;98201.734375;;;11.130000;47.453125
77517;BME280;68414;53.946;27.634;2023-04-25T00:04:49;98201.906250;;;10.970000;48.341797
77517;BME280;68414;53.946;27.634;2023-04-25T00:05:49;98205.046875;;;10.960000;48.306641
77517;BME280;68414;53.946;27.634;2023-04-25T00:06:49;98206.625000;;;10.970000;47.239258
77517;BME280;68414;53.946;27.634;2023-04-25T00:07:49;98198.625000;;;10.880000;48.680664
77517;BME280;68414;53.946;27.634;2023-04-25T00:08:49;98204.031250;;;10.810000;48.846680
77517;BME280;68414;53.946;27.634;2023-04-25T00:09:49;98195.453125;;;10.860000;47.838867
77517;BME280;68414;53.946;27.634;2023-04-25T00:10:50;98193.914062;;;10.890000;47.632812
77517;BME280;68414;53.946;27.634;2023-04-25T00:11:49;98200.226562;;;10.890000;49.052734
77517;BME280;68414;53.946;27.634;2023-04-25T00:12:49;98195.484375;;;10.900000;49.413086
77517;BME280;68414;53.946;27.634;2023-04-25T00:13:49;98193.914062;;;10.890000;48.866211
77517;BME280;68414;53.946;27.634;2023-04-25T00:14:49;98195.875000;;;10.880000;47.076172
77517;BME280;68414;53.946;27.634;2023-04-25T00:15:49;98200.578125;;;10.880000;47.655273
77517;BME280;68414;53.946;27.634;2023-04-25T00:16:49;98197.781250;;;10.840000;47.967773
77517;BME280;68414;53.946;27.634;2023-04-25T00:17:49;98194.648438;;;10.860000;48.099609
77517;BME280;68414;53.946;27.634;2023-04-25T00:18:49;98184.812500;;;10.850000;48.054688
77517;BME280;68414;53.946;27.634;2023-04-25T00:19:49;98185.265625;;;10.900000;48.071289
77517;BME280;68414;53.946;27.634;2023-04-25T00:20:49;98189.976562;;;10.900000;48.039062
77517;BME280;68414;53.946;27.634;2023-04-25T00:21:49;98185.265625;;;10.900000;48.781250
77517;BME280;68414;53.946;27.634;2023-04-25T00:22:49;98190.781250;;;10.900000;48.573242
77517;BME280;68414;53.946;27.634;2023-04-25T00:23:49;98186.484375;;;10.930000;48.238281
77517;BME280;68414;53.946;27.634;2023-04-25T00:24:49;98186.484375;;;10.930000;48.336914
77517;BME280;68414;53.946;27.634;2023-04-25T00:25:49;98182.929688;;;10.920000;48.860352
77517;BME280;68414;53.946;27.634;2023-04-25T00:26:49;98184.843750;;;10.880000;48.385742
77517;BME280;68414;53.946;27.634;2023-04-25T00:27:49;98184.843750;;;10.880000;46.814453
77517;BME280;68414;53.946;27.634;2023-04-25T00:28:49;98187.492188;;;10.810000;47.614258
77517;BME280;68414;53.946;27.634;2023-04-25T00:29:49;98185.921875;;;10.800000;47.973633
77517;BME280;68414;53.946;27.634;2023-04-25T00:30:49;98185.843750;;;10.770000;48.143555
77517;BME280;68414;53.946;27.634;2023-04-25T00:31:49;98189.828125;;;10.790000;47.950195
77517;BME280;68414;53.946;27.634;2023-04-25T00:32:49;98185.539062;;;10.820000;47.385742
77517;BME280;68414;53.946;27.634;2023-04-25T00:33:49;98182.781250;;;10.820000;47.484375
77517;BME280;68414;53.946;27.634;2023-04-25T00:34:49;98178.109375;;;10.860000;48.186523
77517;BME280;68414;53.946;27.634;2023-04-25T00:35:49;98184.281250;;;10.760000;48.044922
77517;BME280;68414;53.946;27.634;2023-04-25T00:36:49;98179.562500;;;10.760000;47.205078
77517;BME280;68414;53.946;27.634;2023-04-25T00:37:49;98184.968750;;;10.690000;48.527344
77517;BME280;68414;53.946;27.634;2023-04-25T00:38:49;98177.500000;;;10.700000;48.245117
77517;BME280;68414;53.946;27.634;2023-04-25T00:39:50;98179.500000;;;10.730000;48.030273
77517;BME280;68414;53.946;27.634;2023-04-25T00:40:49;98181.140625;;;10.770000;48.068359
77517;BME280;68414;53.946;27.634;2023-04-25T00:41:49;98176.851562;;;10.800000;47.143555
77517;BME280;68414;53.946;27.634;2023-04-25T00:42:50;98179.500000;;;10.730000;48.499023
77517;BME280;68414;53.946;27.634;2023-04-25T00:43:49;98177.851562;;;10.680000;48.657227
77517;BME280;68414;53.946;27.634;2023-04-25T00:44:51;98177.765625;;;10.610000;48.781250
77517;BME280;68414;53.946;27.634;2023-04-25T00:45:49;98182.054688;;;10.580000;48.875977
77517;BME280;68414;53.946;27.634;2023-04-25T00:46:49;98183.281250;;;10.610000;48.890625
77517;BME280;68414;53.946;27.634;2023-04-25T00:47:49;98180.531250;;;10.610000;49.097656
77517;BME280;68414;53.946;27.634;2023-04-25T00:48:49;98175.367188;;;10.590000;48.953125
77517;BME280;68414;53.946;27.634;2023-04-25T00:49:49;98180.070312;;;10.590000;49.313477
77517;BME280;68414;53.946;27.634;2023-04-25T00:50:51;98184.851562;;;10.620000;49.491211
77517;BME280;68414;53.946;27.634;2023-04-25T00:51:49;98178.500000;;;10.580000;49.768555
77517;BME280;68414;53.946;27.634;2023-04-25T00:52:49;98186.382812;;;10.590000;50.032227
77517;BME280;68414;53.946;27.634;2023-04-25T00:53:49;98180.828125;;;10.560000;49.352539
77517;BME280;68414;53.946;27.634;2023-04-25T00:54:49;98178.500000;;;10.580000;48.374023
77517;BME280;68414;53.946;27.634;2023-04-25T00:55:49;98174.562500;;;10.590000;48.997070
77517;BME280;68414;53.946;27.634;2023-04-25T00:56:49;98178.546875;;;10.610000;48.923828
77517;BME280;68414;53.946;27.634;2023-04-25T00:57:49;98178.117188;;;10.590000;48.855469
77517;BME280;68414;53.946;27.634;2023-04-25T00:58:49;98182.828125;;;10.590000;49.117188
77517;BME280;68414;53.946;27.634;2023-04-25T00:59:49;98175.015625;;;10.610000;49.554688
77517;BME280;68414;53.946;27.634;2023-04-25T01:00:50;98180.140625;;;10.620000;49.599609
77517;BME280;68414;53.946;27.634;2023-04-25T01:01:49;98173.031250;;;10.610000;48.662109
77517;BME280;68414;53.946;27.634;2023-04-25T01:02:49;98169.500000;;;10.610000;48.639648
77517;BME280;68414;53.946;27.634;2023-04-25T01:03:49;98178.960938;;;10.630000;48.653320
77517;BME280;68414;53.946;27.634;2023-04-25T01:04:49;98175.625000;;;10.510000;49.793945
77517;BME280;68414;53.946;27.634;2023-04-25T01:05:49;98168.468750;;;10.460000;50.159180
77517;BME280;68414;53.946;27.634;2023-04-25T01:06:49;98176.312500;;;10.440000;49.024414
77517;BME280;68414;53.946;27.634;2023-04-25T01:07:49;98172.406250;;;10.450000;49.754883
77517;BME280;68414;53.946;27.634;2023-04-25T01:08:49;98175.203125;;;10.490000;48.723633
77517;BME280;68414;53.946;27.634;2023-04-25T01:09:51;98177.578125;;;10.500000;48.823242
77517;BME280;68414;53.946;27.634;2023-04-25T01:10:49;98175.625000;;;10.510000;48.944336
77517;BME280;68414;53.946;27.634;2023-04-25T01:11:49;98177.234375;;;10.520000;49.021484
77517;BME280;68414;53.946;27.634;2023-04-25T01:12:49;98167.750000;;;10.490000;50.141602
77517;BME280;68414;53.946;27.634;2023-04-25T01:13:49;98180.789062;;;10.520000;48.291992
77517;BME280;68414;53.946;27.634;2023-04-25T01:14:49;98175.015625;;;10.610000;48.846680
77517;BME280;68414;53.946;27.634;2023-04-25T01:15:49;98177.656250;;;10.540000;49.099609
77517;BME280;68414;53.946;27.634;2023-04-25T01:16:49;98175.203125;;;10.490000;49.268555
77517;BME280;68414;53.946;27.634;2023-04-25T01:17:49;98164.609375;;;10.510000;49.009766
77517;BME280;68414;53.946;27.634;2023-04-25T01:18:49;98178.078125;;;10.560000;49.995117
77517;BME280;68414;53.946;27.634;2023-04-25T01:19:49;98169.812500;;;10.560000;49.614258
77517;BME280;68414;53.946;27.634;2023-04-25T01:20:53;98164.726562;;;10.580000;49.888672
77517;BME280;68414;53.946;27.634;2023-04-25T01:21:49;98167.906250;;;10.600000;50.010742
77517;BME280;68414;53.946;27.634;2023-04-25T01:22:50;98167.906250;;;10.600000;49.575195
77517;BME280;68414;53.946;27.634;2023-04-25T01:23:49;98165.140625;;;10.600000;48.266602
77517;BME280;68414;53.946;27.634;2023-04-25T01:24:49;98172.187500;;;10.570000;49.485352
77517;BME280;68414;53.946;27.634;2023-04-25T01:25:49;98164.687500;;;10.540000;48.261719
77517;BME280;68414;53.946;27.634;2023-04-25T01:26:49;98167.859375;;;10.560000;48.405273
77517;BME280;68414;53.946;27.634;2023-04-25T01:27:49;98171.140625;;;10.390000;50.389648
77517;BME280;68414;53.946;27.634;2023-04-25T01:28:49;98170.468750;;;10.230000;50.632812
77517;BME280;68414;53.946;27.634;2023-04-25T01:29:50;98163.859375;;;10.280000;50.279297
77517;BME280;68414;53.946;27.634;2023-04-25T01:30:49;98165.515625;;;10.320000;49.467773
77517;BME280;68414;53.946;27.634;2023-04-25T01:31:49;98158.406250;;;10.310000;49.804688
77517;BME280;68414;53.946;27.634;2023-04-25T01:32:49;98165.132812;;;10.340000;49.655273
77517;BME280;68414;53.946;27.634;2023-04-25T01:33:49;98162.804688;;;10.360000;49.581055
77517;BME280;68414;53.946;27.634;2023-04-25T01:34:49;98159.625000;;;10.340000;49.807617
77517;BME280;68414;53.946;27.634;2023-04-25T01:35:49;98160.468750;;;10.380000;49.473633
77517;BME280;68414;53.946;27.634;2023-04-25T01:36:49;98160.125000;;;10.390000;49.605469
77517;BME280;68414;53.946;27.634;2023-04-25T01:37:49;98155.390625;;;10.400000;49.563477
77517;BME280;68414;53.946;27.634;2023-04-25T01:38:49;98166.054688;;;10.410000;49.673828
77517;BME280;68414;53.946;27.634;2023-04-25T01:39:49;98160.890625;;;10.400000;48.942383
77517;BME280;68414;53.946;27.634;2023-04-25T01:40:49;98164.031250;;;10.380000;49.758789
77517;BME280;68414;53.946;27.634;2023-04-25T01:41:49;98164.828125;;;10.390000;49.061523
77517;BME280;68414;53.946;27.634;2023-04-25T01:42:49;98164.031250;;;10.380000;48.364258
77517;BME280;68414;53.946;27.634;2023-04-25T01:43:49;98167.156250;;;10.370000;49.647461
77517;BME280;68414;53.946;27.634;2023-04-25T01:44:51;98166.359375;;;10.360000;50.179688
77517;BME280;68414;53.946;27.634;2023-04-25T01:45:49;98171.750000;;;10.290000;49.454102
77517;BME280;68414;53.946;27.634;2023-04-25T01:46:49;98166.617188;;;10.280000;49.026367
77517;BME280;68414;53.946;27.634;2023-04-25T01:47:49;98162.335938;;;10.300000;49.095703
77517;BME280;68414;53.946;27.634;2023-04-25T01:48:49;98158.406250;;;10.310000;49.107422
77517;BME280;68414;53.946;27.634;2023-04-25T01:49:49;98157.625000;;;10.310000;49.739258
77517;BME280;68414;53.946;27.634;2023-04-25T01:50:49;98150.937500;;;10.320000;50.392578
77517;BME280;68414;53.946;27.634;2023-04-25T01:51:49;98165.437500;;;10.290000;50.619141
77517;BME280;68414;53.946;27.634;2023-04-25T01:52:49;98157.125000;;;10.250000;50.341797
77517;BME280;68414;53.946;27.634;2023-04-25T01:53:49;98161.789062;;;10.210000;49.552734
77517;BME280;68414;53.946;27.634;2023-04-25T01:54:49;98149.171875;;;10.200000;49.236328
77517;BME280;68414;53.946;27.634;2023-04-25T01:55:49;98156.703125;;;10.230000;49.380859
77517;BME280;68414;53.946;27.634;2023-04-25T01:56:49;98153.226562;;;10.260000;49.722656
77517;BME280;68414;53.946;27.634;2023-04-25T01:57:49;98155.906250;;;10.230000;48.977539
77517;BME280;68414;53.946;27.634;2023-04-25T01:58:49;98146.500000;;;10.240000;49.185547
77517;BME280;68414;53.946;27.634;2023-04-25T01:59:49;98153.578125;;;10.250000;48.794922
77517;BME280;68414;53.946;27.634;2023-04-25T02:00:49;98148.140625;;;10.280000;48.667969
77517;BME280;68414;53.946;27.634;2023-04-25T02:01:49;98152.046875;;;10.270000;48.840820
77517;BME280;68414;53.946;27.634;2023-04-25T02:02:49;98146.500000;;;10.240000;48.914062
77517;BME280;68414;53.946;27.634;2023-04-25T02:03:49;98142.937500;;;10.230000;48.683594
77517;BME280;68414;53.946;27.634;2023-04-25T02:04:49;98150.898438;;;10.280000;48.625000
77517;BME280;68414;53.946;27.634;2023-04-25T02:05:49;98148.070312;;;10.250000;48.827148
77517;BME280;68414;53.946;27.634;2023-04-25T02:06:49;98139.882812;;;10.280000;48.864258
77517;BME280;68414;53.946;27.634;2023-04-25T02:07:49;98136.023438;;;10.330000;48.782227
77517;BME280;68414;53.946;27.634;2023-04-25T02:08:49;98141.875000;;;10.310000;49.815430
77517;BME280;68414;53.946;27.634;2023-04-25T02:09:49;98140.656250;;;10.290000;49.213867
77517;BME280;68414;53.946;27.634;2023-04-25T02:10:49;98140.656250;;;10.290000;49.029297
77517;BME280;68414;53.946;27.634;2023-04-25T02:11:49;98140.312500;;;10.300000;49.596680
77517;BME280;68414;53.946;27.634;2023-04-25T02:12:49;98140.734375;;;10.320000;50.197266
77517;BME280;68414;53.946;27.634;2023-04-25T02:13:49;98135.531250;;;10.270000;50.430664
77517;BME280;68414;53.946;27.634;2023-04-25T02:14:49;98140.992188;;;10.240000;50.373047
77517;BME280;68414;53.946;27.634;2023-04-25T02:15:49;98137.062500;;;10.250000;49.285156
77517;BME280;68414;53.946;27.634;2023-04-25T02:16:49;98138.281250;;;10.270000;49.428711
77517;BME280;68414;53.946;27.634;2023-04-25T02:17:49;98135.109375;;;10.250000;49.056641
77517;BME280;68414;53.946;27.634;2023-04-25T02:18:49;98138.656250;;;10.260000;49.111328
77517;BME280;68414;53.946;27.634;2023-04-25T02:19:50;98135.828125;;;10.220000;48.846680
77517;BME280;68414;53.946;27.634;2023-04-25T02:20:49;98136.632812;;;10.230000;49.010742
77517;BME280;68414;53.946;27.634;2023-04-25T02:21:49;98132.609375;;;10.170000;49.046875
77517;BME280;68414;53.946;27.634;2023-04-25T02:22:49;98132.609375;;;10.170000;49.112305
77517;BME280;68414;53.946;27.634;2023-04-25T02:23:49;98129.554688;;;10.220000;49.162109
77517;BME280;68414;53.946;27.634;2023-04-25T02:24:51;98128.031250;;;10.240000;49.056641
77517;BME280;68414;53.946;27.634;2023-04-25T02:25:49;98128.031250;;;10.240000;48.903320
77517;BME280;68414;53.946;27.634;2023-04-25T02:26:49;98130.781250;;;10.240000;48.968750
77517;BME280;68414;53.946;27.634;2023-04-25T02:27:49;98130.023438;;;10.270000;48.742188
77517;BME280;68414;53.946;27.634;2023-04-25T02:28:49;98126.000000;;;10.210000;48.964844
77517;BME280;68414;53.946;27.634;2023-04-25T02:29:49;98123.250000;;;10.210000;48.975586
77517;BME280;68414;53.946;27.634;2023-04-25T02:30:49;98124.351562;;;10.170000;48.959961
77517;BME280;68414;53.946;27.634;2023-04-25T02:31:49;98122.406250;;;10.170000;49.145508
77517;BME280;68414;53.946;27.634;2023-04-25T02:32:50;98122.828125;;;10.190000;49.072266
77517;BME280;68414;53.946;27.634;2023-04-25T02:33:49;98118.468750;;;10.180000;48.864258
77517;BME280;68414;53.946;27.634;2023-04-25T02:34:49;98121.218750;;;10.180000;49.070312
77517;BME280;68414;53.946;27.634;2023-04-25T02:35:49;98116.515625;;;10.190000;49.354492
77517;BME280;68414;53.946;27.634;2023-04-25T02:36:49;98120.070312;;;10.190000;49.028320
77517;BME280;68414;53.946;27.634;2023-04-25T02:37:49;98114.562500;;;10.190000;49.136719
77517;BME280;68414;53.946;27.634;2023-04-25T02:38:49;98116.937500;;;10.210000;48.987305
77517;BME280;68414;53.946;27.634;2023-04-25T02:39:49;98117.015625;;;10.240000;49.175781
77517;BME280;68414;53.946;27.634;2023-04-25T02:40:49;98118.164062;;;10.230000;49.130859
77517;BME280;68414;53.946;27.634;2023-04-25T02:41:49;98122.515625;;;10.240000;48.925781
77517;BME280;68414;53.946;27.634;2023-04-25T02:42:49;98122.828125;;;10.190000;49.964844
77517;BME280;68414;53.946;27.634;2023-04-25T02:43:49;98123.398438;;;10.090000;49.680664
77517;BME280;68414;53.946;27.634;2023-04-25T02:44:49;98118.695312;;;10.100000;49.376953
77517;BME280;68414;53.946;27.634;2023-04-25T02:45:49;98119.070312;;;10.080000;49.658203
77517;BME280;68414;53.946;27.634;2023-04-25T02:46:49;98117.468750;;;10.070000;49.569336
77517;BME280;68414;53.946;27.634;2023-04-25T02:47:49;98115.625000;;;10.110000;49.563477
77517;BME280;68414;53.946;27.634;2023-04-25T02:48:49;98122.406250;;;10.170000;51.094727
77517;BME280;68414;53.946;27.634;2023-04-25T02:49:49;98118.796875;;;10.130000;50.555664
77517;BME280;68414;53.946;27.634;2023-04-25T02:50:49;98104.609375;;;10.110000;50.162109
77517;BME280;68414;53.946;27.634;2023-04-25T02:51:49;98107.796875;;;10.130000;50.403320
77517;BME280;68414;53.946;27.634;2023-04-25T02:52:49;98111.695312;;;10.120000;49.543945
77517;BME280;68414;53.946;27.634;2023-04-25T02:53:49;98109.359375;;;10.140000;49.491211
77517;BME280;68414;53.946;27.634;2023-04-25T02:54:49;98106.109375;;;10.090000;49.451172
77517;BME280;68414;53.946;27.634;2023-04-25T02:55:49;98112.390625;;;10.090000;49.713867
77517;BME280;68414;53.946;27.634;2023-04-25T02:56:49;98110.812500;;;10.080000;50.136719
77517;BME280;68414;53.946;27.634;2023-04-25T02:57:49;98101.710938;;;10.040000;49.718750
77517;BME280;68414;53.946;27.634;2023-04-25T02:58:49;98112.765625;;;10.080000;49.364258
77517;BME280;68414;53.946;27.634;2023-04-25T02:59:49;98108.789062;;;10.050000;49.349609
77517;BME280;68414;53.946;27.634;2023-04-25T03:00:49;98111.921875;;;10.040000;49.239258
77517;BME280;68414;53.946;27.634;2023-04-25T03:01:49;98109.171875;;;10.040000;49.489258
77517;BME280;68414;53.946;27.634;2023-04-25T03:02:49;98108.062500;;;10.080000;49.690430
77517;BME280;68414;53.946;27.634;2023-04-25T03:03:49;98108.062500;;;10.080000;49.451172
77517;BME280;68414;53.946;27.634;2023-04-25T03:04:49;98086.132812;;;9.890000;49.201172
77517;BME280;68414;53.946;27.634;2023-04-25T03:05:49;98114.070312;;;10.140000;49.098633
77517;BME280;68414;53.946;27.634;2023-04-25T03:06:53;98111.734375;;;10.160000;49.742188
77517;BME280;68414;53.946;27.634;2023-04-25T03:07:49;98102.703125;;;10.150000;49.035156
77517;BME280;68414;53.946;27.634;2023-04-25T03:08:49;98105.078125;;;10.170000;48.937500
77517;BME280;68414;53.946;27.634;2023-04-25T03:09:49;98100.375000;;;10.170000;49.352539
77517;BME280;68414;53.946;27.634;2023-04-25T03:10:49;98103.476562;;;10.160000;49.416016
77517;BME280;68414;53.946;27.634;2023-04-25T03:11:49;98109.484375;;;10.210000;49.487305
77517;BME280;68414;53.946;27.634;2023-04-25T03:12:49;98109.101562;;;10.230000;50.426758
77517;BME280;68414;53.946;27.634;2023-04-25T03:13:49;98103.554688;;;10.190000;49.507812
77517;BME280;68414;53.946;27.634;2023-04-25T03:14:49;98114.492188;;;10.160000;51.048828
77517;BME280;68414;53.946;27.634;2023-04-25T03:15:49;98111.734375;;;10.160000;49.263672
77517;BME280;68414;53.946;27.634;2023-04-25T03:16:49;98112.960938;;;10.180000;49.321289
77517;BME280;68414;53.946;27.634;2023-04-25T03:17:49;98114.984375;;;10.210000;49.139648
77517;BME280;68414;53.946;27.634;2023-04-25T03:18:49;98113.296875;;;10.130000;49.641602
77517;BME280;68414;53.946;27.634;2023-04-25T03:19:49;98121.171875;;;10.150000;49.415039
77517;BME280;68414;53.946;27.634;2023-04-25T03:20:50;98122.703125;;;10.120000;49.456055
77517;BME280;68414;53.946;27.634;2023-04-25T03:21:49;98118.468750;;;10.180000;49.397461
77517;BME280;68414;53.946;27.634;2023-04-25T03:22:49;98114.945312;;;10.180000;49.309570
77517;BME280;68414;53.946;27.634;2023-04-25T03:23:49;98116.562500;;;10.220000;49.172852
77517;BME280;68414;53.946;27.634;2023-04-25T03:24:49;98117.703125;;;10.180000;49.287109
77517;BME280;68414;53.946;27.634;2023-04-25T03:25:49;98114.945312;;;10.180000;49.363281
77517;BME280;68414;53.946;27.634;2023-04-25T03:26:49;98107.875000;;;10.200000;49.410156
77517;BME280;68414;53.946;27.634;2023-04-25T03:27:49;98108.000000;;;10.270000;49.308594
77517;BME280;68414;53.946;27.634;2023-04-25T03:28:49;98105.546875;;;10.220000;49.041992
77517;BME280;68414;53.946;27.634;2023-04-25T03:29:49;98107.578125;;;10.250000;49.023438
77517;BME280;68414;53.946;27.634;2023-04-25T03:30:49;98104.937500;;;10.320000;48.999023
77517;BME280;68414;53.946;27.634;2023-04-25T03:31:49;98104.554688;;;10.340000;49.001953
77517;BME280;68414;53.946;27.634;2023-04-25T03:32:49;98103.406250;;;10.350000;49.013672
77517;BME280;68414;53.946;27.634;2023-04-25T03:33:49;98102.718750;;;10.410000;49.585938
77517;BME280;68414;53.946;27.634;2023-04-25T03:34:49;98107.046875;;;10.420000;49.544922
77517;BME280;68414;53.946;27.634;2023-04-25T03:35:50;98105.093750;;;10.430000;48.880859
77517;BME280;68414;53.946;27.634;2023-04-25T03:36:49;98103.562500;;;10.450000;49.503906
77517;BME280;68414;53.946;27.634;2023-04-25T03:37:49;98109.414062;;;10.440000;49.055664
77517;BME280;68414;53.946;27.634;2023-04-25T03:38:49;98107.421875;;;10.410000;48.976562
77517;BME280;68414;53.946;27.634;2023-04-25T03:39:49;98103.562500;;;10.450000;49.046875
77517;BME280;68414;53.946;27.634;2023-04-25T03:40:49;98104.398438;;;10.490000;48.888672
77517;BME280;68414;53.946;27.634;2023-04-25T03:41:49;98113.882812;;;10.520000;48.934570
77517;BME280;68414;53.946;27.634;2023-04-25T03:42:49;98102.101562;;;10.550000;48.904297
77517;BME280;68414;53.946;27.634;2023-04-25T03:43:49;98106.843750;;;10.540000;48.850586
77517;BME280;68414;53.946;27.634;2023-04-25T03:44:49;98111.203125;;;10.590000;48.583008
77517;BME280;68414;53.946;27.634;2023-04-25T03:45:49;98105.765625;;;10.620000;48.541992
77517;BME280;68414;53.946;27.634;2023-04-25T03:46:49;98112.109375;;;10.660000;48.875000
77517;BME280;68414;53.946;27.634;2023-04-25T03:47:49;98106.562500;;;10.630000;48.521484
77517;BME280;68414;53.946;27.634;2023-04-25T03:48:49;98107.406250;;;10.670000;48.525391
77517;BME280;68414;53.946;27.634;2023-04-25T03:49:49;98105.453125;;;10.680000;48.788086
77517;BME280;68414;53.946;27.634;2023-04-25T03:50:49;98103.890625;;;10.700000;49.250000
77517;BME280;68414;53.946;27.634;2023-04-25T03:51:49;98112.148438;;;10.700000;48.431641
77517;BME280;68414;53.946;27.634;2023-04-25T03:52:49;98113.750000;;;10.710000;48.541992
77517;BME280;68414;53.946;27.634;2023-04-25T03:53:49;98107.507812;;;10.740000;48.751953
77517;BME280;68414;53.946;27.634;2023-04-25T03:54:49;98107.507812;;;10.740000;48.697266
77517;BME280;68414;53.946;27.634;2023-04-25T03:55:49;98114.132812;;;10.700000;48.550781
77517;BME280;68414;53.946;27.634;2023-04-25T03:56:49;98105.101562;;;10.730000;48.422852
77517;BME280;68414;53.946;27.634;2023-04-25T03:57:49;98108.765625;;;10.800000;48.584961
77517;BME280;68414;53.946;27.634;2023-04-25T03:58:49;98111.234375;;;10.890000;48.516602
77517;BME280;68414;53.946;27.634;2023-04-25T03:59:49;98108.992188;;;10.980000;48.385742
77517;BME280;68414;53.946;27.634;2023-04-25T04:00:49;98107.515625;;;11.070000;47.969727
77517;BME280;68414;53.946;27.634;2023-04-25T04:01:49;98115.617188;;;11.260000;47.587891
77517;BME280;68414;53.946;27.634;2023-04-25T04:02:49;98115.671875;;;11.300000;47.242188
77517;BME280;68414;53.946;27.634;2023-04-25T04:03:49;98107.953125;;;11.460000;47.663086
77517;BME280;68414;53.946;27.634;2023-04-25T04:04:49;98112.398438;;;11.540000;47.104492
77517;BME280;68414;53.946;27.634;2023-04-25T04:05:49;98116.812500;;;11.620000;46.544922
77517;BME280;68414;53.946;27.634;2023-04-25T04:06:49;98119.312500;;;11.740000;46.108398
77517;BME280;68414;53.946;27.634;2023-04-25T04:07:49;98110.398438;;;11.910000;45.787109
77517;BME280;68414;53.946;27.634;2023-04-25T04:08:49;98110.812500;;;11.930000;45.526367
77517;BME280;68414;53.946;27.634;2023-04-25T04:09:49;98113.296875;;;12.050000;45.156250
77517;BME280;68414;53.946;27.634;2023-04-25T04:10:49;98109.859375;;;12.190000;45.115234
77517;BME280;68414;53.946;27.634;2023-04-25T04:11:49;98116.562500;;;12.220000;44.833008
77517;BME280;68414;53.946;27.634;2023-04-25T04:12:49;98115.796875;;;12.210000;45.379883
77517;BME280;68414;53.946;27.634;2023-04-25T04:13:49;98113.453125;;;12.270000;44.881836
77517;BME280;68414;53.946;27.634;2023-04-25T04:14:49;98113.390625;;;12.190000;44.952148
77517;BME280;68414;53.946;27.634;2023-04-25T04:15:49;98122.007812;;;12.110000;45.644531
77517;BME280;68414;53.946;27.634;2023-04-25T04:16:50;98116.125000;;;12.120000;45.579102
77517;BME280;68414;53.946;27.634;2023-04-25T04:17:49;98105.109375;;;12.190000;45.576172
77517;BME280;68414;53.946;27.634;2023-04-25T04:18:49;98106.773438;;;12.280000;44.795898
77517;BME280;68414;53.946;27.634;2023-04-25T04:19:49;98117.906250;;;12.420000;44.755859
77517;BME280;68414;53.946;27.634;2023-04-25T04:20:49;98113.601562;;;12.480000;44.465820
77517;BME280;68414;53.946;27.634;2023-04-25T04:21:49;98114.468750;;;12.590000;44.038086
77517;BME280;68414;53.946;27.634;2023-04-25T04:22:49;98114.468750;;;12.590000;43.983398
77517;BME280;68414;53.946;27.634;2023-04-25T04:23:49;98109.734375;;;12.590000;44.115234
77517;BME280;68414;53.946;27.634;2023-04-25T04:24:49;98105.820312;;;12.640000;44.076172
77517;BME280;68414;53.946;27.634;2023-04-25T04:25:49;98105.820312;;;12.640000;44.416016
77517;BME280;68414;53.946;27.634;2023-04-25T04:26:49;98106.578125;;;12.610000;44.226562
77517;BME280;68414;53.946;27.634;2023-04-25T04:27:49;98106.562500;;;12.540000;44.121094
77517;BME280;68414;53.946;27.634;2023-04-25T04:28:49;98103.742188;;;12.470000;44.245117
77517;BME280;68414;53.946;27.634;2023-04-25T04:29:49;98106.125000;;;12.520000;44.118164
77517;BME280;68414;53.946;27.634;2023-04-25T04:30:49;98100.648438;;;12.590000;44.290039